Terminal Aerodrome Forecast
Issued by NWS Charleston, WV

Current Version | Previous Version | Graphics & Text | Print | Product List | Glossary On
Versions: 1 2 3 4 5 6 7 8 9 10 11 12 13 14 15 16 17 18 19 20 21 22
996
FTUS41 KRLX 281720
TAFBKW
TAF
KBKW 281720Z 2818/2918 16007KT P6SM SCT040
     FM290000 13004KT P6SM SCT140
     FM290800 00000KT P6SM BKN080
     FM291700 15004KT P6SM BKN070=

USA.gov is the U.S. government's official web portal to all federal, state and local government web resources and services.